sensor_id;sensor_type;location;lat;lon;timestamp;pressure;altitude;pressure_sealevel;temperature;humidity
60170;BME280;46042;49.444;6.862;2023-02-13T00:01:05;100551.22;;;1.30;100.00
60170;BME280;46042;49.444;6.862;2023-02-13T00:03:32;100553.78;;;1.28;100.00
60170;BME280;46042;49.444;6.862;2023-02-13T00:05:59;100550.31;;;1.33;100.00
60170;BME280;46042;49.444;6.862;2023-02-13T00:08:25;100562.47;;;1.32;100.00
60170;BME280;46042;49.444;6.862;2023-02-13T00:10:52;100547.72;;;1.33;100.00
60170;BME280;46042;49.444;6.862;2023-02-13T00:13:18;100549.47;;;1.34;100.00
60170;BME280;46042;49.444;6.862;2023-02-13T00:15:54;100546.88;;;1.34;100.00
60170;BME280;46042;49.444;6.862;2023-02-13T00:18:21;100553.78;;;1.32;100.00
60170;BME280;46042;49.444;6.862;2023-02-13T00:21:03;100555.53;;;1.34;100.00
60170;BME280;46042;49.444;6.862;2023-02-13T00:23:32;100552.06;;;1.35;100.00
60170;BME280;46042;49.444;6.862;2023-02-13T00:26:00;100549.47;;;1.34;100.00
60170;BME280;46042;49.444;6.862;2023-02-13T00:28:30;100557.28;;;1.32;100.00
60170;BME280;46042;49.444;6.862;2023-02-13T00:31:11;100555.50;;;1.28;100.00
60170;BME280;46042;49.444;6.862;2023-02-13T00:33:38;100553.78;;;1.28;100.00
60170;BME280;46042;49.444;6.862;2023-02-13T00:36:07;100556.38;;;1.25;100.00
60170;BME280;46042;49.444;6.862;2023-02-13T00:38:35;100553.78;;;1.25;100.00
60170;BME280;46042;49.444;6.862;2023-02-13T00:41:02;100552.91;;;1.22;100.00
60170;BME280;46042;49.444;6.862;2023-02-13T00:43:29;100555.47;;;1.17;100.00
60170;BME280;46042;49.444;6.862;2023-02-13T00:45:56;100557.22;;;1.20;100.00
60170;BME280;46042;49.444;6.862;2023-02-13T00:48:24;100549.44;;;1.23;100.00
60170;BME280;46042;49.444;6.862;2023-02-13T00:50:52;100552.91;;;1.19;100.00
60170;BME280;46042;49.444;6.862;2023-02-13T00:53:23;100546.81;;;1.15;100.00
60170;BME280;46042;49.444;6.862;2023-02-13T00:55:50;100549.41;;;1.12;100.00
60170;BME280;46042;49.444;6.862;2023-02-13T00:58:17;100550.25;;;1.08;100.00
60170;BME280;46042;49.444;6.862;2023-02-13T01:00:45;100545.94;;;1.07;100.00
60170;BME280;46042;49.444;6.862;2023-02-13T01:03:16;100544.16;;;1.03;100.00
60170;BME280;46042;49.444;6.862;2023-02-13T01:05:44;100543.25;;;0.93;100.00
60170;BME280;46042;49.444;6.862;2023-02-13T01:08:12;100543.25;;;0.88;100.00
60170;BME280;46042;49.444;6.862;2023-02-13T01:10:41;100537.19;;;0.88;100.00
60170;BME280;46042;49.444;6.862;2023-02-13T01:13:08;100540.69;;;0.94;100.00
60170;BME280;46042;49.444;6.862;2023-02-13T01:15:36;100539.78;;;0.91;100.00
60170;BME280;46042;49.444;6.862;2023-02-13T01:18:02;100534.59;;;0.86;100.00
60170;BME280;46042;49.444;6.862;2023-02-13T01:20:29;100539.84;;;0.97;100.00
60170;BME280;46042;49.444;6.862;2023-02-13T01:22:57;100535.47;;;0.93;100.00
60170;BME280;46042;49.444;6.862;2023-02-13T01:25:24;100541.53;;;0.89;100.00
60170;BME280;46042;49.444;6.862;2023-02-13T01:27:50;100541.50;;;0.85;100.00
60170;BME280;46042;49.444;6.862;2023-02-13T01:30:18;100552.72;;;0.83;100.00
60170;BME280;46042;49.444;6.862;2023-02-13T01:32:45;100550.19;;;0.86;100.00
60170;BME280;46042;49.444;6.862;2023-02-13T01:35:14;100544.13;;;0.87;100.00
60170;BME280;46042;49.444;6.862;2023-02-13T01:37:41;100548.41;;;0.85;100.00
60170;BME280;46042;49.444;6.862;2023-02-13T01:40:12;100557.91;;;0.83;100.00
60170;BME280;46042;49.444;6.862;2023-02-13T01:42:39;100555.31;;;0.77;100.00
60170;BME280;46042;49.444;6.862;2023-02-13T01:45:25;100550.97;;;0.73;100.00
60170;BME280;46042;49.444;6.862;2023-02-13T01:50:43;100546.69;;;0.84;100.00
60170;BME280;46042;49.444;6.862;2023-02-13T01:55:49;100546.72;;;0.92;100.00
60170;BME280;46042;49.444;6.862;2023-02-13T01:58:20;100546.75;;;0.95;100.00
60170;BME280;46042;49.444;6.862;2023-02-13T02:00:48;100545.00;;;0.92;100.00
60170;BME280;46042;49.444;6.862;2023-02-13T02:05:50;100536.34;;;0.87;100.00
60170;BME280;46042;49.444;6.862;2023-02-13T02:08:18;100548.44;;;0.90;100.00
60170;BME280;46042;49.444;6.862;2023-02-13T02:10:45;100542.41;;;0.86;100.00
60170;BME280;46042;49.444;6.862;2023-02-13T02:13:17;100545.84;;;0.87;100.00
60170;BME280;46042;49.444;6.862;2023-02-13T02:15:46;100544.09;;;0.84;100.00
60170;BME280;46042;49.444;6.862;2023-02-13T02:18:15;100539.78;;;0.84;100.00
60170;BME280;46042;49.444;6.862;2023-02-13T02:34:22;100525.97;;;0.96;100.00
60170;BME280;46042;49.444;6.862;2023-02-13T02:52:44;100521.66;;;1.02;100.00
60170;BME280;46042;49.444;6.862;2023-02-13T03:00:47;100531.19;;;0.98;100.00
60170;BME280;46042;49.444;6.862;2023-02-13T03:03:34;100526.84;;;0.95;100.00
60170;BME280;46042;49.444;6.862;2023-02-13T03:06:45;100525.94;;;0.89;100.00
60170;BME280;46042;49.444;6.862;2023-02-13T03:09:18;100532.91;;;0.91;100.00
60170;BME280;46042;49.444;6.862;2023-02-13T03:12:05;100522.50;;;0.91;100.00
60170;BME280;46042;49.444;6.862;2023-02-13T03:14:52;100519.91;;;0.87;100.00
60170;BME280;46042;49.444;6.862;2023-02-13T03:17:19;100525.94;;;0.84;100.00
60170;BME280;46042;49.444;6.862;2023-02-13T03:20:14;100531.16;;;0.87;100.00
60170;BME280;46042;49.444;6.862;2023-02-13T03:23:12;100524.25;;;0.92;100.00
60170;BME280;46042;49.444;6.862;2023-02-13T03:26:01;100528.56;;;0.93;100.00
60170;BME280;46042;49.444;6.862;2023-02-13T03:31:43;100523.38;;;0.87;100.00
60170;BME280;46042;49.444;6.862;2023-02-13T03:34:21;100527.69;;;0.90;100.00
60170;BME280;46042;49.444;6.862;2023-02-13T03:36:59;100527.66;;;0.82;100.00
60170;BME280;46042;49.444;6.862;2023-02-13T03:45:31;100531.00;;;0.59;100.00
60170;BME280;46042;49.444;6.862;2023-02-13T03:48:23;100538.78;;;0.59;100.00
60170;BME280;46042;49.444;6.862;2023-02-13T03:51:11;100543.09;;;0.57;100.00
60170;BME280;46042;49.444;6.862;2023-02-13T03:53:40;100534.44;;;0.55;100.00
60170;BME280;46042;49.444;6.862;2023-02-13T03:56:08;100545.66;;;0.52;100.00
60170;BME280;46042;49.444;6.862;2023-02-13T03:58:56;100544.75;;;0.44;100.00
60170;BME280;46042;49.444;6.862;2023-02-13T04:01:47;100544.69;;;0.38;100.00
60170;BME280;46042;49.444;6.862;2023-02-13T04:07:02;100555.03;;;0.32;100.00
60170;BME280;46042;49.444;6.862;2023-02-13T04:09:31;100547.25;;;0.33;100.00
60170;BME280;46042;49.444;6.862;2023-02-13T04:12:11;100555.91;;;0.34;100.00
60170;BME280;46042;49.444;6.862;2023-02-13T04:17:19;100553.25;;;0.24;100.00
60170;BME280;46042;49.444;6.862;2023-02-13T04:19:47;100554.97;;;0.21;100.00
60170;BME280;46042;49.444;6.862;2023-02-13T04:22:14;100555.84;;;0.23;100.00
60170;BME280;46042;49.444;6.862;2023-02-13T04:24:41;100549.81;;;0.30;100.00
60170;BME280;46042;49.444;6.862;2023-02-13T04:27:12;100551.53;;;0.25;100.00
60170;BME280;46042;49.444;6.862;2023-02-13T04:29:39;100554.09;;;0.22;100.00
60170;BME280;46042;49.444;6.862;2023-02-13T04:32:06;100552.34;;;0.18;100.00
60170;BME280;46042;49.444;6.862;2023-02-13T04:34:33;100559.22;;;0.16;100.00
60170;BME280;46042;49.444;6.862;2023-02-13T04:36:59;100566.97;;;0.09;100.00
60170;BME280;46042;49.444;6.862;2023-02-13T04:39:26;100557.41;;;0.02;100.00
60170;BME280;46042;49.444;6.862;2023-02-13T04:41:52;100559.97;;;0.01;100.00
60170;BME280;46042;49.444;6.862;2023-02-13T04:44:19;100563.41;;;-0.04;100.00
60170;BME280;46042;49.444;6.862;2023-02-13T04:46:46;100565.97;;;-0.07;100.00
60170;BME280;46042;49.444;6.862;2023-02-13T04:49:12;100555.59;;;-0.08;100.00
60170;BME280;46042;49.444;6.862;2023-02-13T04:51:39;100563.56;;;0.17;100.00
60170;BME280;46042;49.444;6.862;2023-02-13T04:54:06;100567.84;;;0.14;100.00
60170;BME280;46042;49.444;6.862;2023-02-13T04:56:32;100556.63;;;0.11;100.00
60170;BME280;46042;49.444;6.862;2023-02-13T04:58:59;100554.91;;;0.13;100.00
60170;BME280;46042;49.444;6.862;2023-02-13T05:01:26;100559.22;;;0.12;100.00
60170;BME280;46042;49.444;6.862;2023-02-13T05:03:52;100546.22;;;0.06;100.00
60170;BME280;46042;49.444;6.862;2023-02-13T05:06:19;100559.13;;;0.02;100.00
60170;BME280;46042;49.444;6.862;2023-02-13T05:08:45;100547.00;;;-0.03;100.00
60170;BME280;46042;49.444;6.862;2023-02-13T05:11:12;100552.09;;;-0.12;100.00
60170;BME280;46042;49.444;6.862;2023-02-13T05:13:39;100549.28;;;-0.35;100.00
60170;BME280;46042;49.444;6.862;2023-02-13T05:16:05;100548.38;;;-0.40;100.00
60170;BME280;46042;49.444;6.862;2023-02-13T05:18:32;100550.13;;;-0.39;100.00
60170;BME280;46042;49.444;6.862;2023-02-13T05:20:58;100548.47;;;-0.34;100.00
60170;BME280;46042;49.444;6.862;2023-02-13T05:23:44;100553.66;;;-0.30;100.00
60170;BME280;46042;49.444;6.862;2023-02-13T05:26:10;100552.81;;;-0.30;100.00
60170;BME280;46042;49.444;6.862;2023-02-13T05:28:37;100554.53;;;-0.32;100.00
60170;BME280;46042;49.444;6.862;2023-02-13T05:31:22;100547.59;;;-0.32;100.00
60170;BME280;46042;49.444;6.862;2023-02-13T05:33:49;100550.19;;;-0.32;100.00
60170;BME280;46042;49.444;6.862;2023-02-13T05:36:15;100545.91;;;-0.30;100.00
60170;BME280;46042;49.444;6.862;2023-02-13T05:38:42;100545.03;;;-0.33;100.00
60170;BME280;46042;49.444;6.862;2023-02-13T05:41:09;100545.03;;;-0.29;100.00
60170;BME280;46042;49.444;6.862;2023-02-13T05:43:38;100542.41;;;-0.35;100.00
60170;BME280;46042;49.444;6.862;2023-02-13T05:46:07;100541.50;;;-0.38;100.00
60170;BME280;46042;49.444;6.862;2023-02-13T05:48:35;100555.31;;;-0.41;100.00
60170;BME280;46042;49.444;6.862;2023-02-13T05:51:02;100553.53;;;-0.44;100.00
60170;BME280;46042;49.444;6.862;2023-02-13T05:53:29;100556.09;;;-0.45;100.00
60170;BME280;46042;49.444;6.862;2023-02-13T05:55:55;100559.59;;;-0.41;100.00
60170;BME280;46042;49.444;6.862;2023-02-13T05:58:22;100549.25;;;-0.41;100.00
60170;BME280;46042;49.444;6.862;2023-02-13T06:00:49;100554.44;;;-0.38;100.00
60170;BME280;46042;49.444;6.862;2023-02-13T06:03:15;100551.00;;;-0.37;100.00
60170;BME280;46042;49.444;6.862;2023-02-13T06:05:42;100544.94;;;-0.41;100.00
60170;BME280;46042;49.444;6.862;2023-02-13T06:08:09;100551.97;;;-0.29;100.00
60170;BME280;46042;49.444;6.862;2023-02-13T06:10:35;100550.22;;;-0.30;100.00
60170;BME280;46042;49.444;6.862;2023-02-13T06:13:02;100555.41;;;-0.30;100.00
60170;BME280;46042;49.444;6.862;2023-02-13T06:15:29;100544.13;;;-0.34;100.00
60170;BME280;46042;49.444;6.862;2023-02-13T06:17:55;100541.53;;;-0.35;100.00
60170;BME280;46042;49.444;6.862;2023-02-13T06:20:22;100544.06;;;-0.41;100.00
60170;BME280;46042;49.444;6.862;2023-02-13T06:22:50;100541.50;;;-0.40;100.00
60170;BME280;46042;49.444;6.862;2023-02-13T06:25:17;100551.81;;;-0.45;100.00
60170;BME280;46042;49.444;6.862;2023-02-13T06:27:44;100547.44;;;-0.47;100.00
60170;BME280;46042;49.444;6.862;2023-02-13T06:30:11;100556.09;;;-0.47;100.00
60170;BME280;46042;49.444;6.862;2023-02-13T06:32:38;100556.94;;;-0.49;100.00
60170;BME280;46042;49.444;6.862;2023-02-13T06:35:05;100555.22;;;-0.49;100.00
60170;BME280;46042;49.444;6.862;2023-02-13T06:37:32;100562.13;;;-0.46;100.00
60170;BME280;46042;49.444;6.862;2023-02-13T06:39:59;100561.25;;;-0.48;100.00
60170;BME280;46042;49.444;6.862;2023-02-13T06:42:26;100559.53;;;-0.46;100.00
60170;BME280;46042;49.444;6.862;2023-02-13T06:44:52;100560.44;;;-0.43;100.00
60170;BME280;46042;49.444;6.862;2023-02-13T06:47:19;100562.25;;;-0.37;100.00
60170;BME280;46042;49.444;6.862;2023-02-13T06:49:46;100569.19;;;-0.34;100.00
60170;BME280;46042;49.444;6.862;2023-02-13T06:52:12;100566.63;;;-0.31;100.00
60170;BME280;46042;49.444;6.862;2023-02-13T06:54:39;100562.34;;;-0.26;100.00
60170;BME280;46042;49.444;6.862;2023-02-13T06:57:14;100556.34;;;-0.23;100.00
60170;BME280;46042;49.444;6.862;2023-02-13T06:59:41;100558.94;;;-0.20;100.00
60170;BME280;46042;49.444;6.862;2023-02-13T07:02:12;100562.47;;;-0.09;100.00
60170;BME280;46042;49.444;6.862;2023-02-13T07:04:38;100574.59;;;-0.08;100.00
60170;BME280;46042;49.444;6.862;2023-02-13T07:07:05;100566.69;;;-0.22;100.00
60170;BME280;46042;49.444;6.862;2023-02-13T07:09:32;100571.81;;;-0.26;100.00
60170;BME280;46042;49.444;6.862;2023-02-13T07:12:02;100569.19;;;-0.33;100.00
60170;BME280;46042;49.444;6.862;2023-02-13T07:14:29;100574.38;;;-0.34;100.00
60170;BME280;46042;49.444;6.862;2023-02-13T07:16:56;100576.94;;;-0.33;100.00
60170;BME280;46042;49.444;6.862;2023-02-13T07:19:23;100579.56;;;-0.31;100.00
60170;BME280;46042;49.444;6.862;2023-02-13T07:21:49;100580.41;;;-0.32;100.00
60170;BME280;46042;49.444;6.862;2023-02-13T07:24:16;100585.63;;;-0.29;100.00
60170;BME280;46042;49.444;6.862;2023-02-13T07:26:42;100582.19;;;-0.26;100.00
60170;BME280;46042;49.444;6.862;2023-02-13T07:29:09;100577.84;;;-0.27;100.00
60170;BME280;46042;49.444;6.862;2023-02-13T07:31:37;100582.16;;;-0.30;100.00
60170;BME280;46042;49.444;6.862;2023-02-13T07:34:05;100591.56;;;-0.39;100.00
60170;BME280;46042;49.444;6.862;2023-02-13T07:36:32;100586.34;;;-0.43;100.00
60170;BME280;46042;49.444;6.862;2023-02-13T07:38:59;100586.28;;;-0.47;100.00
60170;BME280;46042;49.444;6.862;2023-02-13T07:41:25;100584.56;;;-0.48;100.00
60170;BME280;46042;49.444;6.862;2023-02-13T07:43:53;100588.88;;;-0.49;100.00
60170;BME280;46042;49.444;6.862;2023-02-13T07:46:20;100588.88;;;-0.49;100.00
60170;BME280;46042;49.444;6.862;2023-02-13T07:48:47;100589.75;;;-0.45;100.00
60170;BME280;46042;49.444;6.862;2023-02-13T07:51:13;100583.72;;;-0.44;100.00
60170;BME280;46042;49.444;6.862;2023-02-13T07:53:41;100580.34;;;-0.38;100.00
60170;BME280;46042;49.444;6.862;2023-02-13T07:56:08;100581.28;;;-0.32;100.00
60170;BME280;46042;49.444;6.862;2023-02-13T07:58:36;100581.28;;;-0.29;100.00
60170;BME280;46042;49.444;6.862;2023-02-13T08:01:12;100582.19;;;-0.26;100.00
60170;BME280;46042;49.444;6.862;2023-02-13T08:03:39;100585.69;;;-0.23;100.00
60170;BME280;46042;49.444;6.862;2023-02-13T08:06:06;100576.22;;;-0.18;100.00
60170;BME280;46042;49.444;6.862;2023-02-13T08:08:33;100584.03;;;-0.13;100.00
60170;BME280;46042;49.444;6.862;2023-02-13T08:11:06;100582.38;;;-0.06;100.00
60170;BME280;46042;49.444;6.862;2023-02-13T08:13:52;100585.88;;;0.01;100.00
60170;BME280;46042;49.444;6.862;2023-02-13T08:16:18;100582.47;;;0.03;100.00
60170;BME280;46042;49.444;6.862;2023-02-13T08:18:45;100579.00;;;0.03;100.00
60170;BME280;46042;49.444;6.862;2023-02-13T08:21:12;100582.50;;;0.09;100.00
60170;BME280;46042;49.444;6.862;2023-02-13T08:23:40;100576.50;;;0.13;100.00
60170;BME280;46042;49.444;6.862;2023-02-13T08:26:07;100572.28;;;0.28;100.00
60170;BME280;46042;49.444;6.862;2023-02-13T08:28:34;100571.50;;;0.35;100.00
60170;BME280;46042;49.444;6.862;2023-02-13T08:31:00;100572.44;;;0.51;100.00
60170;BME280;46042;49.444;6.862;2023-02-13T08:33:27;100566.44;;;0.57;100.00
60170;BME280;46042;49.444;6.862;2023-02-13T08:35:54;100571.66;;;0.63;100.00
60170;BME280;46042;49.444;6.862;2023-02-13T08:38:21;100569.09;;;0.68;100.00
60170;BME280;46042;49.444;6.862;2023-02-13T08:40:47;100567.41;;;0.78;100.00
60170;BME280;46042;49.444;6.862;2023-02-13T08:43:14;100571.09;;;1.30;100.00
60170;BME280;46042;49.444;6.862;2023-02-13T08:45:40;100573.84;;;2.26;100.00
60170;BME280;46042;49.444;6.862;2023-02-13T08:48:07;100565.56;;;3.63;100.00
60170;BME280;46042;49.444;6.862;2023-02-13T08:50:34;100564.44;;;4.01;100.00
60170;BME280;46042;49.444;6.862;2023-02-13T08:53:03;100569.53;;;4.15;100.00
60170;BME280;46042;49.444;6.862;2023-02-13T08:55:29;100564.25;;;5.06;100.00
60170;BME280;46042;49.444;6.862;2023-02-13T08:58:01;100559.31;;;6.11;100.00
60170;BME280;46042;49.444;6.862;2023-02-13T09:00:28;100561.47;;;7.30;100.00
60170;BME280;46042;49.444;6.862;2023-02-13T09:03:03;100562.44;;;7.64;100.00
60170;BME280;46042;49.444;6.862;2023-02-13T09:05:30;100561.44;;;8.07;100.00
60170;BME280;46042;49.444;6.862;2023-02-13T09:08:01;100574.28;;;8.54;100.00
60170;BME280;46042;49.444;6.862;2023-02-13T09:10:30;100566.44;;;8.17;96.75
60170;BME280;46042;49.444;6.862;2023-02-13T09:12:57;100574.69;;;8.03;100.00
60170;BME280;46042;49.444;6.862;2023-02-13T09:15:23;100576.94;;;7.80;95.19
60170;BME280;46042;49.444;6.862;2023-02-13T09:17:50;100572.56;;;7.81;96.91
60170;BME280;46042;49.444;6.862;2023-02-13T09:20:17;100574.91;;;7.56;91.87
60170;BME280;46042;49.444;6.862;2023-02-13T09:22:43;100574.50;;;7.33;94.33
60170;BME280;46042;49.444;6.862;2023-02-13T09:25:10;100570.72;;;7.04;94.88
60170;BME280;46042;49.444;6.862;2023-02-13T09:27:36;100573.63;;;7.33;94.59
60170;BME280;46042;49.444;6.862;2023-02-13T09:30:08;100573.50;;;7.39;96.26
60170;BME280;46042;49.444;6.862;2023-02-13T09:32:36;100572.84;;;7.68;95.32
60170;BME280;46042;49.444;6.862;2023-02-13T09:35:05;100581.66;;;8.04;93.02
60170;BME280;46042;49.444;6.862;2023-02-13T09:37:32;100586.09;;;8.00;89.54
60170;BME280;46042;49.444;6.862;2023-02-13T09:39:58;100584.00;;;8.15;92.51
60170;BME280;46042;49.444;6.862;2023-02-13T09:42:28;100581.34;;;8.86;96.95
60170;BME280;46042;49.444;6.862;2023-02-13T09:44:59;100576.09;;;8.86;91.10
60170;BME280;46042;49.444;6.862;2023-02-13T09:47:30;100575.75;;;9.28;86.32
60170;BME280;46042;49.444;6.862;2023-02-13T09:50:23;100571.97;;;9.07;85.76
60170;BME280;46042;49.444;6.862;2023-02-13T09:52:50;100579.72;;;9.72;85.18
60170;BME280;46042;49.444;6.862;2023-02-13T09:55:21;100581.53;;;9.98;82.42
60170;BME280;46042;49.444;6.862;2023-02-13T09:58:01;100586.41;;;9.53;81.19
60170;BME280;46042;49.444;6.862;2023-02-13T10:00:43;100587.03;;;9.33;84.43
60170;BME280;46042;49.444;6.862;2023-02-13T10:03:17;100592.88;;;8.10;85.04
60170;BME280;46042;49.444;6.862;2023-02-13T10:05:57;100591.25;;;8.76;91.96
60170;BME280;46042;49.444;6.862;2023-02-13T10:09:00;100596.22;;;8.53;87.19
60170;BME280;46042;49.444;6.862;2023-02-13T10:11:59;100598.25;;;9.07;84.30
60170;BME280;46042;49.444;6.862;2023-02-13T10:14:47;100596.22;;;8.53;85.36
60170;BME280;46042;49.444;6.862;2023-02-13T10:17:35;100592.31;;;8.32;86.01
60170;BME280;46042;49.444;6.862;2023-02-13T10:25:57;100599.47;;;9.57;81.55
60170;BME280;46042;49.444;6.862;2023-02-13T10:28:56;100593.41;;;9.24;83.40
60170;BME280;46042;49.444;6.862;2023-02-13T10:31:47;100592.88;;;9.11;81.86
60170;BME280;46042;49.444;6.862;2023-02-13T10:34:16;100592.63;;;8.89;83.53
60170;BME280;46042;49.444;6.862;2023-02-13T10:36:46;100595.31;;;8.88;83.86
60170;BME280;46042;49.444;6.862;2023-02-13T10:39:24;100598.34;;;9.35;81.67
60170;BME280;46042;49.444;6.862;2023-02-13T10:50:29;100580.09;;;11.86;76.43
60170;BME280;46042;49.444;6.862;2023-02-13T11:04:49;100574.88;;;11.16;68.60
60170;BME280;46042;49.444;6.862;2023-02-13T11:07:18;100568.94;;;10.86;69.10
60170;BME280;46042;49.444;6.862;2023-02-13T11:09:48;100566.09;;;11.40;70.73
60170;BME280;46042;49.444;6.862;2023-02-13T11:12:32;100563.25;;;11.22;71.71
60170;BME280;46042;49.444;6.862;2023-02-13T11:15:02;100564.41;;;11.37;70.59
60170;BME280;46042;49.444;6.862;2023-02-13T11:17:39;100561.41;;;11.46;69.70
60170;BME280;46042;49.444;6.862;2023-02-13T11:20:29;100547.69;;;11.60;70.74
60170;BME280;46042;49.444;6.862;2023-02-13T11:23:53;100555.25;;;11.47;69.14
60170;BME280;46042;49.444;6.862;2023-02-13T11:26:13;100560.59;;;11.68;67.16
60170;BME280;46042;49.444;6.862;2023-02-13T11:28:50;100552.78;;;11.19;67.77
60170;BME280;46042;49.444;6.862;2023-02-13T11:31:33;100558.09;;;11.41;70.15
60170;BME280;46042;49.444;6.862;2023-02-13T11:34:25;100552.00;;;10.93;69.25
60170;BME280;46042;49.444;6.862;2023-02-13T11:37:06;100558.22;;;11.38;70.44
60170;BME280;46042;49.444;6.862;2023-02-13T11:39:33;100553.25;;;12.40;67.36
60170;BME280;46042;49.444;6.862;2023-02-13T11:42:00;100556.13;;;12.35;66.05
60170;BME280;46042;49.444;6.862;2023-02-13T11:44:31;100553.66;;;12.51;66.52
60170;BME280;46042;49.444;6.862;2023-02-13T11:46:59;62137.28;;;-147.77;100.00
60170;BME280;46042;49.444;6.862;2023-02-13T11:49:28;62137.28;;;-147.77;100.00
60170;BME280;46042;49.444;6.862;2023-02-13T11:52:23;62137.28;;;-147.77;100.00
60170;BME280;46042;49.444;6.862;2023-02-13T11:55:39;62137.28;;;-147.77;100.00
60170;BME280;46042;49.444;6.862;2023-02-13T11:57:55;62137.28;;;-147.77;100.00
60170;BME280;46042;49.444;6.862;2023-02-13T12:00:39;62137.28;;;-147.77;100.00
60170;BME280;46042;49.444;6.862;2023-02-13T12:06:15;62137.28;;;-147.77;100.00
60170;BME280;46042;49.444;6.862;2023-02-13T12:08:45;62137.28;;;-147.77;100.00
60170;BME280;46042;49.444;6.862;2023-02-13T12:14:24;62137.28;;;-147.77;100.00
60170;BME280;46042;49.444;6.862;2023-02-13T12:17:07;62137.28;;;-147.77;100.00
60170;BME280;46042;49.444;6.862;2023-02-13T12:19:46;62137.28;;;-147.77;100.00
60170;BME280;46042;49.444;6.862;2023-02-13T12:36:15;62137.28;;;-147.77;100.00
60170;BME280;46042;49.444;6.862;2023-02-13T12:41:31;62137.28;;;-147.77;100.00
60170;BME280;46042;49.444;6.862;2023-02-13T12:47:18;62137.28;;;-147.77;100.00
60170;BME280;46042;49.444;6.862;2023-02-13T12:58:15;62137.28;;;-147.77;100.00
60170;BME280;46042;49.444;6.862;2023-02-13T13:04:25;62137.28;;;-147.77;100.00
60170;BME280;46042;49.444;6.862;2023-02-13T13:17:56;62137.28;;;-147.77;100.00
60170;BME280;46042;49.444;6.862;2023-02-13T13:23:19;100476.22;;;15.02;54.57
60170;BME280;46042;49.444;6.862;2023-02-13T13:28:34;100463.47;;;15.09;56.35
60170;BME280;46042;49.444;6.862;2023-02-13T13:31:03;100465.44;;;14.89;55.53
60170;BME280;46042;49.444;6.862;2023-02-13T13:33:32;100468.25;;;15.18;56.25
60170;BME280;46042;49.444;6.862;2023-02-13T13:36:07;100468.25;;;15.02;57.04
60170;BME280;46042;49.444;6.862;2023-02-13T13:38:47;100460.34;;;14.51;54.34
60170;BME280;46042;49.444;6.862;2023-02-13T13:41:29;100456.97;;;14.65;56.33
60170;BME280;46042;49.444;6.862;2023-02-13T13:47:31;100451.31;;;14.04;55.57
60170;BME280;46042;49.444;6.862;2023-02-13T13:50:04;100456.38;;;14.08;56.58
60170;BME280;46042;49.444;6.862;2023-02-13T13:52:35;100451.53;;;13.82;57.55
60170;BME280;46042;49.444;6.862;2023-02-13T13:55:05;100454.34;;;14.14;57.25
60170;BME280;46042;49.444;6.862;2023-02-13T14:02:45;100455.59;;;13.89;58.81
60170;BME280;46042;49.444;6.862;2023-02-13T14:05:29;100449.72;;;13.47;57.40
60170;BME280;46042;49.444;6.862;2023-02-13T14:07:57;100448.06;;;13.81;58.68
60170;BME280;46042;49.444;6.862;2023-02-13T14:18:03;100447.13;;;13.26;59.89
60170;BME280;46042;49.444;6.862;2023-02-13T14:23:46;100437.06;;;13.15;58.95
60170;BME280;46042;49.444;6.862;2023-02-13T14:31:21;100430.00;;;13.16;59.90
60170;BME280;46042;49.444;6.862;2023-02-13T14:33:55;100433.75;;;13.12;61.32
60170;BME280;46042;49.444;6.862;2023-02-13T14:37:11;100434.19;;;13.39;60.43
60170;BME280;46042;49.444;6.862;2023-02-13T14:40:12;100437.66;;;13.59;59.75
60170;BME280;46042;49.444;6.862;2023-02-13T14:42:43;100432.38;;;13.40;60.48
60170;BME280;46042;49.444;6.862;2023-02-13T14:45:12;100430.84;;;13.16;60.97
60170;BME280;46042;49.444;6.862;2023-02-13T14:47:45;100429.09;;;12.98;61.06
60170;BME280;46042;49.444;6.862;2023-02-13T14:50:23;100425.44;;;12.81;61.46
60170;BME280;46042;49.444;6.862;2023-02-13T14:52:51;100431.00;;;12.56;62.34
60170;BME280;46042;49.444;6.862;2023-02-13T14:55:40;100432.28;;;12.47;63.11
60170;BME280;46042;49.444;6.862;2023-02-13T14:58:14;100434.44;;;12.58;63.94
60170;BME280;46042;49.444;6.862;2023-02-13T15:01:03;100429.56;;;12.48;64.32
60170;BME280;46042;49.444;6.862;2023-02-13T15:03:45;100432.81;;;12.55;62.82
60170;BME280;46042;49.444;6.862;2023-02-13T15:06:23;100427.56;;;12.54;62.78
60170;BME280;46042;49.444;6.862;2023-02-13T15:08:52;100426.72;;;12.53;64.20
60170;BME280;46042;49.444;6.862;2023-02-13T15:11:32;100421.53;;;12.71;64.19
60170;BME280;46042;49.444;6.862;2023-02-13T15:14:19;100425.59;;;12.78;64.23
60170;BME280;46042;49.444;6.862;2023-02-13T15:17:23;100425.31;;;12.65;63.35
60170;BME280;46042;49.444;6.862;2023-02-13T15:19:53;100432.22;;;12.48;66.15
60170;BME280;46042;49.444;6.862;2023-02-13T15:22:44;100425.03;;;12.31;65.23
60170;BME280;46042;49.444;6.862;2023-02-13T15:25:44;100417.38;;;12.25;65.34
60170;BME280;46042;49.444;6.862;2023-02-13T15:28:22;100412.88;;;12.08;66.07
60170;BME280;46042;49.444;6.862;2023-02-13T15:31:04;100423.97;;;11.94;66.54
60170;BME280;46042;49.444;6.862;2023-02-13T15:36:05;100430.78;;;11.79;67.22
60170;BME280;46042;49.444;6.862;2023-02-13T15:38:34;100429.72;;;11.62;67.85
60170;BME280;46042;49.444;6.862;2023-02-13T15:41:05;100417.56;;;11.58;68.21
60170;BME280;46042;49.444;6.862;2023-02-13T15:43:37;100423.34;;;11.46;68.62
60170;BME280;46042;49.444;6.862;2023-02-13T15:46:07;100426.44;;;11.35;68.97
60170;BME280;46042;49.444;6.862;2023-02-13T15:48:44;100421.59;;;11.24;71.33
60170;BME280;46042;49.444;6.862;2023-02-13T15:51:23;100422.69;;;11.18;71.57
60170;BME280;46042;49.444;6.862;2023-02-13T15:54:01;100424.25;;;11.00;71.45
60170;BME280;46042;49.444;6.862;2023-02-13T15:56:29;100418.34;;;10.93;71.94
60170;BME280;46042;49.444;6.862;2023-02-13T15:58:58;100422.16;;;10.86;74.84